createdAt,value
2019-06-08T00:05:12.458Z,26
2019-06-08T00:10:26.071Z,26
2019-06-08T00:15:36.779Z,26
2019-06-08T00:20:48.346Z,26
2019-06-08T00:25:59.908Z,26
2019-06-08T00:31:11.197Z,26
2019-06-08T00:36:23.280Z,26
2019-06-08T00:41:33.995Z,26
2019-06-08T00:46:44.991Z,26
2019-06-08T00:51:56.597Z,26
2019-06-08T00:57:07.888Z,25.9
2019-06-08T01:02:20.511Z,26
2019-06-08T01:07:31.792Z,25.9
2019-06-08T01:12:43.073Z,26
2019-06-08T01:18:04.282Z,26
2019-06-08T01:23:15.763Z,26
2019-06-08T01:28:28.369Z,26
2019-06-08T01:33:39.668Z,26
2019-06-08T01:38:51.350Z,26
2019-06-08T01:44:02.631Z,26
2019-06-08T01:49:14.201Z,26
2019-06-08T01:54:26.900Z,26
2019-06-08T01:59:38.213Z,26
2019-06-08T02:04:49.778Z,26
2019-06-08T02:10:01.107Z,26
2019-06-08T02:15:12.395Z,26
2019-06-08T02:20:23.971Z,26
2019-06-08T02:25:35.906Z,26
2019-06-08T02:30:46.914Z,26.1
2019-06-08T02:35:58.486Z,26.1
2019-06-08T02:41:10.077Z,26.1
2019-06-08T02:46:21.637Z,26.1
2019-06-08T02:51:36.370Z,26.1
2019-06-08T02:56:48.770Z,26.1
2019-06-08T03:02:00.349Z,26.1
2019-06-08T03:07:11.639Z,26.1
2019-06-08T03:12:22.928Z,26.1
2019-06-08T03:17:37.645Z,26.1
2019-06-08T03:22:50.665Z,26.1
2019-06-08T03:28:02.238Z,26.1
2019-06-08T03:33:13.806Z,26.1
2019-06-08T03:38:27.644Z,26.2
2019-06-08T03:43:42.446Z,26.2
2019-06-08T03:48:54.055Z,26.2
2019-06-08T03:54:05.636Z,26.2
2019-06-08T03:59:16.924Z,26.2
2019-06-08T04:04:28.478Z,26.2
2019-06-08T04:09:41.571Z,26.2
2019-06-08T04:14:54.405Z,26.2
2019-06-08T04:20:12.379Z,26.2
2019-06-08T04:25:23.593Z,26.2
2019-06-08T04:30:35.163Z,26.2
2019-06-08T04:35:47.515Z,26.2
2019-06-08T04:40:58.794Z,26.2
2019-06-08T04:46:10.361Z,26.2
2019-06-08T04:51:21.679Z,26.2
2019-06-08T04:56:33.212Z,26.3
2019-06-08T05:01:47.048Z,26.2
2019-06-08T05:07:01.528Z,26.2
2019-06-08T05:12:13.096Z,26.2
2019-06-08T05:17:24.397Z,26.3
2019-06-08T05:22:35.690Z,26.2
2019-06-08T05:27:47.525Z,26.2
2019-06-08T05:32:59.129Z,26.3
2019-06-08T05:38:10.697Z,26.3
2019-06-08T05:43:21.987Z,26.3
2019-06-08T05:48:43.831Z,26.3
2019-06-08T05:53:56.840Z,26.3
2019-06-08T05:59:08.419Z,26.3
2019-06-08T06:04:19.983Z,26.3
2019-06-08T06:09:31.546Z,26.3
2019-06-08T06:14:43.023Z,26.3
2019-06-08T06:19:54.593Z,26.3
2019-06-08T06:25:06.157Z,26.3
2019-06-08T06:30:17.706Z,26.3
2019-06-08T06:35:29.282Z,26.4
2019-06-08T06:40:41.857Z,26.4
2019-06-08T06:45:53.241Z,26.4
2019-06-08T06:51:04.805Z,26.4
2019-06-08T06:56:16.094Z,26.4
2019-06-08T07:01:30.391Z,26.4
2019-06-08T07:06:41.666Z,26.4
2019-06-08T07:11:53.243Z,26.4
2019-06-08T07:17:07.128Z,26.4
2019-06-08T07:22:18.412Z,26.4
2019-06-08T07:27:29.966Z,26.5
2019-06-08T07:32:41.537Z,26.5
2019-06-08T07:37:53.915Z,26.5
2019-06-08T07:43:06.385Z,26.5
2019-06-08T07:48:17.950Z,26.5
2019-06-08T07:53:29.531Z,26.5
2019-06-08T07:58:41.084Z,26.5
2019-06-08T08:03:52.386Z,26.5
2019-06-08T08:09:03.681Z,26.5
2019-06-08T08:14:15.246Z,26.5
2019-06-08T08:19:26.813Z,26.5
2019-06-08T08:24:39.185Z,26.5
2019-06-08T08:29:51.550Z,26.5
2019-06-08T08:35:03.754Z,26.5
2019-06-08T08:40:14.478Z,26.6
2019-06-08T08:45:27.802Z,26.6
2019-06-08T08:50:48.298Z,26.6
2019-06-08T08:56:03.071Z,26.6
2019-06-08T09:01:14.067Z,26.5
2019-06-08T09:06:28.211Z,26.5
2019-06-08T09:11:41.646Z,26.5
2019-06-08T09:16:55.615Z,26.5
2019-06-08T09:22:12.845Z,26.5
2019-06-08T09:27:24.421Z,26.5
2019-06-08T09:32:38.292Z,26.5
2019-06-08T09:37:49.338Z,26.5
2019-06-08T09:43:12.820Z,26.5
2019-06-08T09:48:25.639Z,26.5
2019-06-08T09:53:42.092Z,26.5
2019-06-08T09:58:59.933Z,26.5
2019-06-08T10:04:16.842Z,26.5
2019-06-08T10:09:28.939Z,26.5
2019-06-08T10:14:40.531Z,26.5
2019-06-08T10:19:51.502Z,26.5
2019-06-08T10:25:10.347Z,26.5
2019-06-08T10:30:22.855Z,26.5
2019-06-08T10:35:34.204Z,26.5
2019-06-08T10:40:47.798Z,26.5
2019-06-08T10:46:11.791Z,26.6
2019-06-08T10:51:33.561Z,26.5
2019-06-08T10:56:45.121Z,26.6
2019-06-08T11:02:07.103Z,26.6
2019-06-08T11:07:24.678Z,26.6
2019-06-08T11:12:37.838Z,26.6
2019-06-08T11:17:49.403Z,26.6
2019-06-08T11:23:03.556Z,26.6
2019-06-08T11:28:18.737Z,26.6
2019-06-08T11:33:30.732Z,26.6
2019-06-08T11:38:42.007Z,26.6
2019-06-08T11:43:53.738Z,26.6
2019-06-08T11:49:12.677Z,26.7
2019-06-08T11:54:40.053Z,26.7
2019-06-08T11:59:52.410Z,26.7
2019-06-08T12:05:03.964Z,26.7
2019-06-08T12:10:17.622Z,26.7
2019-06-08T12:15:28.882Z,26.7
2019-06-08T12:20:40.449Z,26.7
2019-06-08T12:25:52.068Z,26.8
2019-06-08T12:31:04.667Z,26.8
2019-06-08T12:36:20.525Z,26.8
2019-06-08T12:41:32.918Z,26.8
2019-06-08T12:46:44.489Z,26.8
2019-06-08T12:51:58.514Z,26.8
2019-06-08T12:57:16.657Z,26.8
2019-06-08T13:02:31.257Z,26.8
2019-06-08T13:07:42.548Z,26.8
2019-06-08T13:12:53.847Z,26.9
2019-06-08T13:18:05.481Z,26.9
2019-06-08T13:23:21.340Z,26.9
2019-06-08T13:28:32.708Z,26.9
2019-06-08T13:33:44.307Z,26.9
2019-06-08T13:38:55.603Z,26.9
2019-06-08T13:44:08.915Z,26.9
2019-06-08T13:49:29.810Z,26.9
2019-06-08T13:54:41.933Z,26.9
2019-06-08T13:59:58.107Z,27
2019-06-08T14:05:09.393Z,27
2019-06-08T14:10:24.103Z,27
2019-06-08T14:15:38.888Z,27
2019-06-08T14:20:53.615Z,27
2019-06-08T14:26:08.166Z,27
2019-06-08T14:31:25.161Z,27
2019-06-08T14:36:42.333Z,27
2019-06-08T14:41:53.927Z,27
2019-06-08T14:47:07.952Z,27
2019-06-08T14:52:22.626Z,27
2019-06-08T14:57:40.386Z,27
2019-06-08T15:02:51.633Z,27
2019-06-08T15:08:03.279Z,27
2019-06-08T15:13:14.274Z,27
2019-06-08T15:18:28.658Z,27
2019-06-08T15:23:42.604Z,27
2019-06-08T15:28:54.247Z,27
2019-06-08T15:34:05.780Z,27
2019-06-08T15:39:23.388Z,27
2019-06-08T15:44:34.735Z,27
2019-06-08T15:49:45.726Z,27
2019-06-08T15:55:02.266Z,27
2019-06-08T16:00:13.599Z,27
2019-06-08T16:05:26.056Z,27
2019-06-08T16:10:40.146Z,27
2019-06-08T16:15:51.152Z,27
2019-06-08T16:21:02.435Z,27
2019-06-08T16:26:13.738Z,27
2019-06-08T16:31:24.741Z,27
2019-06-08T16:36:36.149Z,27
2019-06-08T16:41:47.443Z,27
2019-06-08T16:46:58.944Z,27
2019-06-08T16:52:09.678Z,27.1
2019-06-08T16:57:20.683Z,27.1
2019-06-08T17:02:34.764Z,27.1
2019-06-08T17:07:48.401Z,27.1
2019-06-08T17:12:59.969Z,27.1
2019-06-08T17:18:11.606Z,27.1
2019-06-08T17:23:22.560Z,27.1
2019-06-08T17:28:37.043Z,27.1
2019-06-08T17:33:48.404Z,27.1
2019-06-08T17:38:59.963Z,27.1
2019-06-08T17:44:11.530Z,27.1
2019-06-08T17:49:23.227Z,27.1
2019-06-08T17:54:35.381Z,27.1
2019-06-08T17:59:47.899Z,27.1
2019-06-08T18:04:59.796Z,27.1
2019-06-08T18:10:10.824Z,27.1
2019-06-08T18:15:22.336Z,27.1
2019-06-08T18:20:34.451Z,27.1
2019-06-08T18:25:49.251Z,27.1
2019-06-08T18:31:00.504Z,27.1
2019-06-08T18:36:11.512Z,27.1
2019-06-08T18:41:22.797Z,27.1
2019-06-08T18:46:34.902Z,27.1
2019-06-08T18:51:49.403Z,27.1
2019-06-08T18:57:00.677Z,27.1
2019-06-08T19:02:12.245Z,27.1
2019-06-08T19:07:23.537Z,27
2019-06-08T19:12:35.114Z,27.1
2019-06-08T19:17:57.237Z,27
2019-06-08T19:23:09.782Z,27
2019-06-08T19:28:39.330Z,27
2019-06-08T19:33:58.363Z,27.1
2019-06-08T19:39:20.453Z,27.1
2019-06-08T19:44:32.018Z,27.1
2019-06-08T19:49:44.619Z,27.1
2019-06-08T20:00:19.626Z,27.1
2019-06-08T20:05:31.175Z,27.1
2019-06-08T20:10:49.527Z,27.1
2019-06-08T20:16:02.690Z,27.1
2019-06-08T20:21:14.500Z,27.1
2019-06-08T20:26:28.665Z,27.1
2019-06-08T20:31:41.292Z,27.1
2019-06-08T20:36:53.260Z,27.1
2019-06-08T20:42:08.435Z,27.1
2019-06-08T20:47:23.054Z,27.1
2019-06-08T20:52:34.055Z,27.1
2019-06-08T20:57:47.732Z,27.1
2019-06-08T21:03:03.547Z,27.1
2019-06-08T21:08:17.116Z,27.1
2019-06-08T21:13:28.846Z,27.1
2019-06-08T21:18:40.417Z,27.1
2019-06-08T21:23:59.772Z,27.1
2019-06-08T21:29:12.195Z,27.1
2019-06-08T21:34:23.761Z,27.1
2019-06-08T21:39:39.235Z,27.1
2019-06-08T21:44:55.734Z,27.1
2019-06-08T21:50:18.480Z,27.1
2019-06-08T21:55:32.789Z,27.1
2019-06-08T22:00:52.556Z,27.1
2019-06-08T22:06:04.226Z,27.1
2019-06-08T22:11:18.149Z,27.1
2019-06-08T22:16:29.723Z,27.1
2019-06-08T22:21:41.131Z,27.1
2019-06-08T22:26:55.205Z,27.1
2019-06-08T22:32:11.383Z,27.1
2019-06-08T22:37:25.753Z,27.1
2019-06-08T22:42:41.856Z,27.1
2019-06-08T22:47:57.425Z,27.1
2019-06-08T22:53:12.636Z,27.1
2019-06-08T22:58:24.198Z,27.1
2019-06-08T23:03:35.500Z,27.1
2019-06-08T23:08:48.315Z,27.1
2019-06-08T23:14:04.422Z,27.1
2019-06-08T23:19:26.857Z,27.1
2019-06-08T23:24:38.642Z,27.1
2019-06-08T23:29:49.929Z,27.1
2019-06-08T23:35:02.868Z,27.1
2019-06-08T23:40:14.232Z,27.1
2019-06-08T23:45:27.430Z,27.1
2019-06-08T23:50:38.718Z,27.1
2019-06-08T23:55:49.440Z,27.1
